»·PEaware :: N768CC KSNA-KAVX

N768CC :: KSNA-KAVX

FLIGHT INFORMATION

Flight Status: Arrived
Operator: Privately registered:
United States
More flights under this callsign
Pilot: Carr B. (31183)
Aircraft: MOONEY M-20 201 202 205 220 ATS MSE
(M20P)
More flights by this aircraft type
Origin: KSNA John Wayne-Orange Co
United States
Destination: KAVX Catalina
United States
More flights between these airports :: More routes between these airports
Route: SLI V21 SXC
File this flight plan on PilotEdge
Remarks:
Altitude:
(Current/Filed)
4,000ft
Speed:
(Current/Filed)
150kts
Departed: 13-Nov-20 06:03 PM
Arrived: 13-Nov-20 06:35 PM
Distance/Time
Traveled:
32nm/0:32
Distance/Time
To Go:
Arrived

Flight Plot

Page will automatically refresh every two minutes.


Map Options




Map Legend


Flown Route
Filed Route
Departure Airport
Arrival Airport
Navaid (VOR, NDB)
Fix

Horizontal Profiles

Position Reports

Time Latitude Longitude Heading Altitude Ground
Speed
13-Nov-20 17:51 33.674857 -117.871633 37 58ft 0kts
13-Nov-20 17:52 33.674857 -117.871633 37 58ft 0kts
13-Nov-20 17:53 33.674857 -117.871633 37 58ft 0kts
13-Nov-20 17:54 33.674857 -117.871633 37 58ft 0kts
13-Nov-20 17:55 33.674857 -117.871633 37 58ft 0kts
13-Nov-20 17:56 33.674857 -117.871633 37 58ft 0kts
13-Nov-20 17:57 33.674857 -117.871633 37 58ft 0kts
13-Nov-20 17:58 33.674857 -117.871633 37 58ft 0kts
13-Nov-20 17:59 33.674700 -117.870905 58 58ft 7kts
13-Nov-20 18:00 33.677266 -117.869276 29 58ft 13kts
13-Nov-20 18:01 33.681115 -117.867076 36 58ft 11kts
13-Nov-20 18:02 33.681255 -117.866546 110 58ft 1kts
13-Nov-20 18:03 33.666653 -117.874890 210 291ft 122kts
13-Nov-20 18:04 33.634418 -117.899113 229 1383ft 141kts
13-Nov-20 18:05 33.610451 -117.938252 232 2312ft 151kts
13-Nov-20 18:06 33.586264 -117.979526 236 3177ft 150kts
13-Nov-20 18:06 33.568169 -118.012318 239 3799ft 132kts
13-Nov-20 18:08 33.545115 -118.057085 239 3999ft 140kts
13-Nov-20 18:08 33.528190 -118.090000 239 3992ft 133kts
13-Nov-20 18:10 33.507197 -118.132776 241 3992ft 124kts
13-Nov-20 18:10 33.492886 -118.162405 241 3994ft 122kts
13-Nov-20 18:11 33.476168 -118.197557 246 3997ft 121kts
13-Nov-20 18:12 33.459984 -118.233044 242 4000ft 121kts
13-Nov-20 18:13 33.443906 -118.268484 242 4003ft 121kts
13-Nov-20 18:14 33.427518 -118.304533 242 3927ft 128kts
13-Nov-20 18:15 33.410359 -118.342264 242 3849ft 127kts
13-Nov-20 18:16 33.393626 -118.379029 242 3849ft 124kts
13-Nov-20 18:17 33.384436 -118.416350 305 3805ft 132kts
13-Nov-20 18:18 33.423102 -118.413413 4 3650ft 149kts
13-Nov-20 18:19 33.464218 -118.407391 359 3534ft 148kts
13-Nov-20 18:20 33.505348 -118.404093 358 3452ft 146kts
13-Nov-20 18:21 33.542142 -118.413522 318 3439ft 133kts
13-Nov-20 18:22 33.570148 -118.441346 313 3452ft 129kts
13-Nov-20 18:23 33.597605 -118.469412 328 3449ft 133kts
13-Nov-20 18:24 33.612073 -118.439995 145 3449ft 141kts
13-Nov-20 18:25 33.580771 -118.412255 144 3450ft 142kts
13-Nov-20 18:26 33.544150 -118.401339 187 3255ft 139kts
13-Nov-20 18:27 33.505481 -118.403990 188 3094ft 139kts
13-Nov-20 18:28 33.467126 -118.406987 188 2930ft 134kts
13-Nov-20 18:29 33.432680 -118.411424 192 2739ft 100kts
13-Nov-20 18:30 33.410076 -118.418618 197 2263ft 77kts
13-Nov-20 18:31 33.403468 -118.401588 41 2608ft 106kts
13-Nov-20 18:32 33.428541 -118.395729 292 2474ft 96kts
13-Nov-20 18:33 33.411130 -118.406827 218 1754ft 74kts
13-Nov-20 18:34 33.403891 -118.415030 192 1543ft 18kts
13-Nov-20 18:35 33.403496 -118.416025 253 1550ft 2kts
13-Nov-20 18:36 33.404038 -118.414958 2 1542ft 0kts
13-Nov-20 18:37 33.404522 -118.415012 14 1542ft 0kts
13-Nov-20 18:38 33.404829 -118.415370 34 1543ft 0kts
13-Nov-20 18:39 33.405573 -118.414127 55 1530ft 20kts
13-Nov-20 18:40 33.407389 -118.411749 240 1500ft 3kts

Navigation Log

Ident Type
Flight plan parsing failed, navigation log unavailable